Dennis, Texas
Current Conditions -  °F | °C
As of 7:35 PM on Tuesday 25 Nov 2014 (Local Time) from KGDJ Reporting Station
Clear Clear  
Wind Chill:   Ceiling: Unl
Heat Index:   Visibility: 10mi
Dew Point: -1°   Wind: 0mph
Humidity: 50%   Direction: NA
Pressure: 30.18"   Gusts: NA
Location:  32.62°N, 97.93°W
Report Text: KGDJ 260135Z AUTO 00000KT 10SM CLR 09/M01 A3018 RMK AO2 T00921009
Loading
Personal Weather Stations






























Interactive Weather Map New forecast layout! Learn more

10-Day Weather Forecast

Advertisements
Track Severe Weather on mobile